x

Ilm3 - 27 Miles Se Of Wrightsville Beach, Nc (41037) Weather Station

8:08 - Fri 22nd Sep 2017 All times are EDT. -4 hours from GMT.

  • Wind
    7mph, 9mph gusts
  • Sea Temp 80°f
  • Air Temp 80°f
  • Sea Pressure 1017.2mb
  • Ilm3 - 27 Miles Se Of Wrightsville Beach, Nc
  • Ilm3 - 27 Miles Se Of Wrightsville Beach, Nc

More Historic Weather Station data

Upgrade to MSW Pro to gain access to the past 30 days of data for over 8000 Wavebouys and Weather Stations around the globe.

Join

Comparision Forecast

View Surf forecast
   
ven. 09/22 8:08 7 9 mph 1017.2mb 80f 80f
7:08 7 11 mph 1017.2mb 80f 80f
6:08 9 11 mph 1016.7mb 80f 79f
5:08 9 13 mph 1016.3mb 80f 79f
4:08 9 11 mph 1015.9mb 80f 79f
3:08 9 16 mph 1016mb 80f 78f
2:08 11 16 mph 1016.4mb 80f 78f
1:08 11 13 mph 1016.9mb 80f 78f
12:08 9 13 mph 1016.9mb 80f 78f
jeu. 09/21 11:08 7 11 mph 1016.8mb 80f 79f
10:08 4 9 mph 1016.5mb 80f 78f
9:08 7 11 mph 1016.5mb 80f 78f
8:08 2 9 mph 1015.3mb 80f 77f
7:08 18 25 mph 1015.8mb 81f 77f
6:08 9 13 mph 1015.3mb 82f 79f
5:08 7 9 mph 1015.1mb 82f 81f
4:08 7 9 mph 1015.3mb 81f 81f
3:08 4 9 mph 1015.4mb 81f 80f
2:08 2 4 mph 1016.3mb 81f 81f
1:08 4 7 mph 1016.9mb 80f 79f
12:08 4 7 mph 1017.1mb 80f 78f
11:08 7 11 mph 1017.2mb 80f 78f
10:08 9 13 mph 1017.1mb 80f 78f
9:08 13 18 mph 1017mb 80f 78f
7:08 13 18 mph 1016.3mb 80f 78f
6:08 9 13 mph 1015.9mb 80f 78f
5:08 9 13 mph 1015.4mb 80f 78f
4:08 11 18 mph 1015.2mb 80f 79f
3:08 11 18 mph 1015.4mb 80f 79f
2:08 11 18 mph 1015.7mb 80f 79f
1:08 13 18 mph 1015.6mb 80f 79f
12:08 13 18 mph 1015.7mb 80f 79f
mer. 09/20 11:08 13 20 mph 1015.8mb 80f 80f
10:08 13 18 mph 1015.9mb 80f 80f
9:08 11 16 mph 1015.3mb 80f 80f
8:08 11 18 mph 1015mb 80f 80f
7:08 11 16 mph 1014.6mb 80f 80f
6:08 11 16 mph 1014.4mb 80f 81f
5:08 11 16 mph 1014.4mb 80f 81f
4:08 11 16 mph 1014.5mb 80f 81f
3:08 9 13 mph 1015mb 80f 80f
2:08 7 11 mph 1015.7mb 80f 80f
1:08 7 11 mph 1016.3mb 80f 80f
12:08 9 11 mph 1016.6mb 80f 79f
11:08 9 13 mph 1016.7mb 80f 78f
10:08 11 16 mph 1016.5mb 79f 78f
9:08 11 18 mph 1016.4mb 79f 78f
8:08 11 18 mph 1016mb 79f 78f
7:08 11 16 mph 1015.5mb 79f 78f
6:08 11 16 mph 1015.1mb 79f 78f
5:08 11 18 mph 1014.6mb 79f 78f
4:08 11 16 mph 1014.3mb 79f 79f
3:08 11 13 mph 1014mb 79f 79f
2:08 7 11 mph 1014.1mb 79f 79f
1:08 7 11 mph 1013.9mb 80f 79f
mar. 09/19 11:08 7 11 mph 1014.1mb 80f 80f
10:08 7 9 mph 1014.1mb 80f 80f
9:08 7 9 mph 1013.8mb 80f 80f
8:08 7 9 mph 1013.5mb 80f 80f
7:08 4 9 mph 1012.7mb 80f 79f
6:08 4 9 mph 1012.5mb 80f 81f
5:08 7 11 mph 1012.2mb 80f 81f
4:08 9 13 mph 1012.3mb 80f 80f
3:08 11 18 mph 1012.7mb 80f 78f
2:08 13 20 mph 1013.1mb 80f 77f
12:08 16 22 mph 1014.1mb 80f 74f
11:08 18 25 mph 1014.2mb 79f 73f
10:08 18 25 mph 1014mb 79f 72f
9:08 18 25 mph 1013.6mb 79f 73f
8:08 18 25 mph 1013.2mb 79f 73f
7:08 16 22 mph 1012.8mb 79f 73f
6:08 16 22 mph 1012.4mb 79f 73f
5:08 18 27 mph 1012mb 80f 74f
4:08 18 25 mph 1011.6mb 80f 75f
3:08 16 25 mph 1011.6mb 80f 75f
2:08 16 22 mph 1012.2mb 80f 76f
1:08 20 27 mph 1012.5mb 80f 76f
lun. 09/18 11:08 20 27 mph 1013.1mb 80f 77f
10:08 18 25 mph 1012.9mb 80f 78f
9:08 18 27 mph 1013.1mb 80f 78f
8:08 16 22 mph 1012.5mb 80f 79f
7:08 18 25 mph 1012mb 80f 80f
6:08 18 22 mph 1012mb 80f 80f
5:08 16 22 mph 1012.1mb 80f 80f
4:08 13 20 mph 1012.7mb 80f 80f
3:08 13 20 mph 1013.2mb 80f 79f
2:08 13 20 mph 1013.6mb 80f 78f